Time;durP1;ratioP1;P1;durP2;ratioP2;P2;SDS_P1;SDS_P2;PMS_P1;PMS_P2;Temp;Humidity;BMP_temperature;BMP_pressure;BME280_temperature;BME280_humidity;BME280_pressure;Samples;Min_cycle;Max_cycle;Signal;HPM_P1;HPM_P2
2022/11/10 00:00:24;;;;;;;;;;;;;7.60;97996.80;;;;109105;1268;42238;-62
2022/11/10 00:03:16;;;;;;;;;;;;;7.56;98000.40;;;;109207;1260;41233;-62
2022/11/10 00:06:08;;;;;;;;;;;;;7.50;98002.00;;;;109041;1262;41168;-62
2022/11/10 00:08:58;;;;;;;;;;;;;7.40;98004.00;;;;109041;1263;41626;-63
2022/11/10 00:11:46;;;;;;;;;;;;;7.40;97999.80;;;;109062;1268;41613;-63
2022/11/10 00:17:40;;;;;;;;;;;;;7.40;97996.00;;;;108949;1268;41148;-62
2022/11/10 00:20:28;;;;;;;;;;;;;7.30;97998.60;;;;108814;1259;41155;-63
2022/11/10 00:23:16;;;;;;;;;;;;;7.30;97998.00;;;;109050;1268;41159;-63
2022/11/10 00:26:04;;;;;;;;;;;;;7.30;98000.20;;;;109048;1268;42075;-62
2022/11/10 00:28:53;;;;;;;;;;;;;7.30;98005.60;;;;108880;1268;42398;-63
2022/11/10 00:31:42;;;;;;;;;;;;;7.30;98005.60;;;;109038;1268;42615;-63
2022/11/10 00:34:30;;;;;;;;;;;;;7.30;98013.40;;;;108979;1268;41142;-63
2022/11/10 00:37:19;;;;;;;;;;;;;7.30;98010.80;;;;109028;1266;41146;-62
2022/11/10 00:40:07;;;;;;;;;;;;;7.26;98013.20;;;;109019;1268;41606;-63
2022/11/10 00:42:56;;;;;;;;;;;;;7.10;98012.00;;;;109022;1268;41155;-63
2022/11/10 00:45:44;;;;;;;;;;;;;7.10;98009.60;;;;109041;1267;41616;-63
2022/11/10 00:48:32;;;;;;;;;;;;;7.10;98006.80;;;;109059;1267;41160;-63
2022/11/10 00:51:24;;;;;;;;;;;;;7.10;98006.20;;;;109064;1268;41166;-62
2022/11/10 00:54:13;;;;;;;;;;;;;7.10;98005.20;;;;109081;1267;42208;-62
2022/11/10 00:57:01;;;;;;;;;;;;;7.06;98004.40;;;;109030;1268;41717;-62
2022/11/10 00:59:50;;;;;;;;;;;;;7.00;97998.60;;;;109032;1268;41486;-62
2022/11/10 01:02:40;;;;;;;;;;;;;7.00;97995.20;;;;108972;1268;41153;-62
2022/11/10 01:05:29;;;;;;;;;;;;;7.00;97995.40;;;;108994;1268;41186;-62
2022/11/10 01:08:17;;;;;;;;;;;;;7.00;97993.60;;;;108990;1268;41612;-62
2022/11/10 01:11:08;;;;;;;;;;;;;7.00;97990.20;;;;108988;1268;41191;-62
2022/11/10 01:13:56;;;;;;;;;;;;;7.00;97993.60;;;;108978;1268;41241;-62
2022/11/10 01:16:44;;;;;;;;;;;;;7.00;97997.00;;;;109033;1268;41170;-63
2022/11/10 01:19:32;;;;;;;;;;;;;6.90;97998.80;;;;109055;1268;41597;-63
2022/11/10 01:22:21;;;;;;;;;;;;;6.88;97997.60;;;;108945;1268;42232;-63
2022/11/10 01:25:10;;;;;;;;;;;;;6.88;97998.40;;;;109028;1268;41227;-61
2022/11/10 01:27:58;;;;;;;;;;;;;6.88;97999.20;;;;109047;1268;41144;-62
2022/11/10 01:30:47;;;;;;;;;;;;;6.80;98004.40;;;;109095;1268;41624;-62
2022/11/10 01:33:36;;;;;;;;;;;;;6.80;97992.00;;;;109078;1268;41184;-62
2022/11/10 01:36:24;;;;;;;;;;;;;6.80;97988.80;;;;109017;1268;41166;-62
2022/11/10 01:39:13;;;;;;;;;;;;;6.82;97987.60;;;;109055;1268;42687;-62
2022/11/10 01:42:02;;;;;;;;;;;;;6.90;97986.20;;;;109047;1268;41475;-62
2022/11/10 01:45:10;;;;;;;;;;;;;6.92;97986.80;;;;109096;1268;41229;-62
2022/11/10 01:48:00;;;;;;;;;;;;;6.98;97980.00;;;;109045;1268;41166;-61
2022/11/10 01:50:49;;;;;;;;;;;;;7.00;97980.80;;;;108952;1269;41150;-62
2022/11/10 01:53:39;;;;;;;;;;;;;7.00;97982.00;;;;109033;1268;41167;-62
2022/11/10 01:56:30;;;;;;;;;;;;;7.00;97982.40;;;;109114;1268;42213;-62
2022/11/10 01:59:29;;;;;;;;;;;;;7.00;97984.40;;;;109082;1268;41614;-61
2022/11/10 02:02:21;;;;;;;;;;;;;7.00;97988.60;;;;108952;1271;41160;-63
2022/11/10 02:05:10;;;;;;;;;;;;;7.00;97996.60;;;;108914;1270;41140;-63
2022/11/10 02:07:59;;;;;;;;;;;;;7.00;98000.00;;;;109080;1268;41160;-62
2022/11/10 02:10:48;;;;;;;;;;;;;7.00;97995.40;;;;108938;1271;41160;-62
2022/11/10 02:13:37;;;;;;;;;;;;;7.08;97997.60;;;;108973;1268;41606;-63
2022/11/10 02:16:26;;;;;;;;;;;;;7.10;97995.20;;;;109004;1271;41146;-63
2022/11/10 02:19:17;;;;;;;;;;;;;7.06;97999.60;;;;109075;1270;41284;-62
2022/11/10 02:22:05;;;;;;;;;;;;;7.00;97999.20;;;;109030;1271;41149;-62
2022/11/10 02:24:56;;;;;;;;;;;;;7.00;98001.60;;;;109034;1268;41600;-62
2022/11/10 02:27:44;;;;;;;;;;;;;7.00;98001.80;;;;109028;1268;41218;-63
2022/11/10 02:30:33;;;;;;;;;;;;;7.00;98000.40;;;;109053;1268;41177;-62
2022/11/10 02:33:22;;;;;;;;;;;;;7.00;98006.80;;;;109038;1268;41781;-63
2022/11/10 02:36:11;;;;;;;;;;;;;7.00;98013.00;;;;109057;1269;41171;-63
2022/11/10 02:39:01;;;;;;;;;;;;;7.00;98010.80;;;;109088;1269;41217;-62
2022/11/10 02:41:49;;;;;;;;;;;;;7.00;98007.00;;;;108992;1271;41377;-62
2022/11/10 02:44:38;;;;;;;;;;;;;7.00;98006.00;;;;108969;1268;41156;-62
2022/11/10 02:47:27;;;;;;;;;;;;;7.00;98000.60;;;;108960;1271;41162;-62
2022/11/10 02:50:16;;;;;;;;;;;;;7.00;98000.80;;;;109051;1270;41334;-62
2022/11/10 02:53:05;;;;;;;;;;;;;7.00;98000.20;;;;109057;1268;41784;-63
2022/11/10 02:55:53;;;;;;;;;;;;;7.00;98002.00;;;;109063;1268;41158;-64
2022/11/10 02:58:42;;;;;;;;;;;;;7.00;98003.60;;;;109006;1268;41275;-62
2022/11/10 03:01:31;;;;;;;;;;;;;7.00;97999.20;;;;109061;1271;42286;-62
2022/11/10 03:04:20;;;;;;;;;;;;;7.00;98007.00;;;;109024;1268;41151;-62
2022/11/10 03:07:09;;;;;;;;;;;;;7.00;98008.80;;;;109063;1268;41134;-62
2022/11/10 03:09:58;;;;;;;;;;;;;7.00;98010.20;;;;109053;1271;41211;-61
2022/11/10 03:12:46;;;;;;;;;;;;;6.98;98010.20;;;;109039;1268;41744;-62
2022/11/10 03:15:34;;;;;;;;;;;;;7.00;98009.20;;;;108988;1268;41199;-62
2022/11/10 03:18:23;;;;;;;;;;;;;7.00;98009.80;;;;109060;1268;41265;-62
2022/11/10 03:21:12;;;;;;;;;;;;;7.00;98016.80;;;;109050;1268;41170;-62
2022/11/10 03:24:01;;;;;;;;;;;;;7.00;98011.20;;;;109003;1268;41744;-63
2022/11/10 03:26:49;;;;;;;;;;;;;6.90;98012.00;;;;109028;1268;41299;-62
2022/11/10 03:29:38;;;;;;;;;;;;;6.90;98019.60;;;;109000;1268;41157;-61
2022/11/10 03:32:25;;;;;;;;;;;;;6.90;98021.60;;;;108996;1268;41712;-62
2022/11/10 03:35:14;;;;;;;;;;;;;6.90;98015.40;;;;108994;1268;41165;-62
2022/11/10 03:38:03;;;;;;;;;;;;;6.90;98016.00;;;;109059;1266;41162;-62
2022/11/10 03:40:52;;;;;;;;;;;;;6.90;98012.20;;;;109100;1268;41140;-61
2022/11/10 03:44:00;;;;;;;;;;;;;6.90;98019.00;;;;109086;1268;41158;-61
2022/11/10 03:46:49;;;;;;;;;;;;;6.90;98012.80;;;;108986;1268;41146;-62
2022/11/10 03:49:38;;;;;;;;;;;;;6.90;98021.20;;;;108990;1268;41831;-62
2022/11/10 03:52:27;;;;;;;;;;;;;6.90;98020.00;;;;109080;1268;41142;-62
2022/11/10 03:55:16;;;;;;;;;;;;;6.90;98026.20;;;;109060;1268;41155;-62
2022/11/10 03:58:04;;;;;;;;;;;;;6.90;98028.20;;;;109095;1268;41310;-62
2022/11/10 04:00:53;;;;;;;;;;;;;6.90;98029.80;;;;109044;1268;41166;-62
2022/11/10 04:03:41;;;;;;;;;;;;;6.90;98028.80;;;;109052;1268;41156;-62
2022/11/10 04:09:40;;;;;;;;;;;;;6.90;98035.40;;;;109028;1268;41166;-62
2022/11/10 04:15:41;;;;;;;;;;;;;6.90;98037.60;;;;108997;1267;41232;-61
2022/11/10 04:18:30;;;;;;;;;;;;;6.96;98036.00;;;;108975;1267;42212;-61
2022/11/10 04:21:18;;;;;;;;;;;;;7.00;98037.40;;;;108988;1268;41565;-62
2022/11/10 04:24:07;;;;;;;;;;;;;6.96;98040.20;;;;108945;1268;41167;-61
2022/11/10 04:26:55;;;;;;;;;;;;;6.90;98037.00;;;;108960;1268;41216;-61
2022/11/10 04:29:43;;;;;;;;;;;;;6.90;98043.80;;;;109004;1268;41234;-62
2022/11/10 04:32:30;;;;;;;;;;;;;6.90;98041.40;;;;108960;1268;41235;-61
2022/11/10 04:35:17;;;;;;;;;;;;;6.90;98044.60;;;;108960;1268;41179;-61
2022/11/10 04:38:05;;;;;;;;;;;;;6.90;98046.20;;;;108973;1268;41159;-61
2022/11/10 04:40:53;;;;;;;;;;;;;6.90;98042.80;;;;108981;1268;41199;-61
2022/11/10 04:43:41;;;;;;;;;;;;;6.80;98045.80;;;;108933;1268;41646;-61
2022/11/10 04:46:33;;;;;;;;;;;;;6.80;98047.40;;;;108924;1268;41159;-62
2022/11/10 04:49:20;;;;;;;;;;;;;6.80;98046.60;;;;108979;1268;41130;-61
2022/11/10 04:52:08;;;;;;;;;;;;;6.74;98049.40;;;;108956;1267;41774;-61
2022/11/10 04:54:55;;;;;;;;;;;;;6.80;98046.40;;;;108974;1268;41161;-62
2022/11/10 04:57:42;;;;;;;;;;;;;6.80;98049.00;;;;108963;1267;41605;-63
2022/11/10 05:00:30;;;;;;;;;;;;;6.80;98050.80;;;;109027;1268;41131;-63
2022/11/10 05:03:18;;;;;;;;;;;;;6.80;98049.00;;;;109036;1268;42198;-63
2022/11/10 05:06:06;;;;;;;;;;;;;6.80;98054.00;;;;108957;1268;41234;-62
2022/11/10 05:08:53;;;;;;;;;;;;;6.80;98058.00;;;;109014;1268;41664;-62
2022/11/10 05:11:41;;;;;;;;;;;;;6.80;98060.00;;;;108915;1268;41146;-62
2022/11/10 05:14:28;;;;;;;;;;;;;6.80;98059.60;;;;108913;1269;41134;-62
2022/11/10 05:17:15;;;;;;;;;;;;;6.80;98059.00;;;;109027;1268;41174;-63
2022/11/10 05:20:04;;;;;;;;;;;;;6.70;98059.20;;;;109032;1268;41690;-63
2022/11/10 05:25:57;;;;;;;;;;;;;6.70;98071.00;;;;109011;1266;41520;-62
2022/11/10 05:28:44;;;;;;;;;;;;;6.60;98072.60;;;;109045;1268;41142;-62
2022/11/10 05:31:33;;;;;;;;;;;;;6.60;98073.40;;;;109007;1267;41146;-62
2022/11/10 05:34:20;;;;;;;;;;;;;6.52;98084.20;;;;109009;1268;41259;-62
2022/11/10 05:37:07;;;;;;;;;;;;;6.50;98087.80;;;;109015;1266;41140;-62
2022/11/10 05:39:55;;;;;;;;;;;;;6.40;98096.80;;;;109026;1268;41149;-62
2022/11/10 05:42:43;;;;;;;;;;;;;6.30;98099.80;;;;108996;1270;41424;-62
2022/11/10 05:45:31;;;;;;;;;;;;;6.30;98102.00;;;;109019;1267;41240;-62
2022/11/10 05:48:19;;;;;;;;;;;;;6.30;98102.60;;;;109018;1271;42241;-62
2022/11/10 05:51:07;;;;;;;;;;;;;6.36;98106.40;;;;109011;1268;41147;-62
2022/11/10 05:53:55;;;;;;;;;;;;;6.40;98107.00;;;;109042;1268;41231;-62
2022/11/10 05:56:42;;;;;;;;;;;;;6.40;98109.80;;;;108983;1268;41384;-62
2022/11/10 05:59:30;;;;;;;;;;;;;6.40;98107.00;;;;109029;1268;41240;-61
2022/11/10 06:02:18;;;;;;;;;;;;;6.40;98113.00;;;;109012;1267;41159;-63
2022/11/10 06:05:05;;;;;;;;;;;;;6.40;98112.40;;;;109018;1268;41405;-62
2022/11/10 06:07:52;;;;;;;;;;;;;6.50;98119.40;;;;109030;1268;41728;-62
2022/11/10 06:10:40;;;;;;;;;;;;;6.50;98122.60;;;;109044;1268;41620;-61
2022/11/10 06:13:29;;;;;;;;;;;;;6.50;98123.80;;;;108996;1268;41188;-62
2022/11/10 06:16:17;;;;;;;;;;;;;6.50;98133.00;;;;109004;1271;41243;-63
2022/11/10 06:19:04;;;;;;;;;;;;;6.50;98136.40;;;;109026;1271;41239;-62
2022/11/10 06:21:51;;;;;;;;;;;;;6.50;98142.00;;;;109026;1271;42571;-63
2022/11/10 06:24:45;;;;;;;;;;;;;6.50;98136.00;;;;109006;1271;41304;-62
2022/11/10 06:27:32;;;;;;;;;;;;;6.50;98142.40;;;;109043;1271;42545;-62
2022/11/10 06:30:19;;;;;;;;;;;;;6.58;98146.20;;;;109030;1269;41152;-62
2022/11/10 06:33:07;;;;;;;;;;;;;6.50;98149.20;;;;109016;1270;41739;-62
2022/11/10 06:35:55;;;;;;;;;;;;;6.50;98153.60;;;;109059;1268;41624;-63
2022/11/10 06:38:42;;;;;;;;;;;;;6.50;98147.80;;;;109018;1268;41196;-62
2022/11/10 06:41:30;;;;;;;;;;;;;6.50;98151.60;;;;108998;1268;42618;-62
2022/11/10 06:44:17;;;;;;;;;;;;;6.50;98155.60;;;;109075;1268;41123;-63
2022/11/10 06:47:05;;;;;;;;;;;;;6.50;98155.40;;;;109048;1268;41242;-63
2022/11/10 06:49:52;;;;;;;;;;;;;6.52;98156.40;;;;109034;1266;41263;-61
2022/11/10 06:52:40;;;;;;;;;;;;;6.54;98154.60;;;;108971;1270;41160;-61
2022/11/10 06:55:27;;;;;;;;;;;;;6.50;98156.80;;;;108971;1272;41340;-62
2022/11/10 06:58:15;;;;;;;;;;;;;6.50;98157.20;;;;109048;1271;41682;-62
2022/11/10 07:01:02;;;;;;;;;;;;;6.52;98160.00;;;;109025;1271;41143;-62
2022/11/10 07:03:49;;;;;;;;;;;;;6.60;98160.40;;;;109020;1271;41874;-60
2022/11/10 07:06:57;;;;;;;;;;;;;6.66;98165.40;;;;109003;1272;41319;-60
2022/11/10 07:09:44;;;;;;;;;;;;;6.70;98172.00;;;;108946;1272;41215;-60
2022/11/10 07:12:31;;;;;;;;;;;;;6.70;98174.20;;;;109017;1273;41149;-61
2022/11/10 07:15:18;;;;;;;;;;;;;6.80;98173.60;;;;109023;1270;41202;-61
2022/11/10 07:18:06;;;;;;;;;;;;;6.80;98176.60;;;;109017;1272;41225;-61
2022/11/10 07:20:53;;;;;;;;;;;;;6.90;98176.20;;;;108957;1272;41133;-61
2022/11/10 07:23:40;;;;;;;;;;;;;6.90;98172.60;;;;108987;1269;41162;-61
2022/11/10 07:26:28;;;;;;;;;;;;;6.96;98171.80;;;;109008;1269;41176;-61
2022/11/10 07:29:15;;;;;;;;;;;;;7.00;98167.20;;;;108655;1272;415606;-61
2022/11/10 07:32:02;;;;;;;;;;;;;7.10;98170.20;;;;109016;1267;41246;-61
2022/11/10 07:34:49;;;;;;;;;;;;;7.10;98173.60;;;;109028;1272;42265;-62
2022/11/10 07:37:37;;;;;;;;;;;;;7.20;98168.40;;;;109009;1268;41160;-61
2022/11/10 07:40:25;;;;;;;;;;;;;7.20;98174.80;;;;109082;1272;41155;-62
2022/11/10 07:43:12;;;;;;;;;;;;;7.22;98171.40;;;;109065;1268;41616;-60
2022/11/10 07:46:00;;;;;;;;;;;;;7.30;98174.00;;;;109012;1272;41599;-60
2022/11/10 07:48:47;;;;;;;;;;;;;7.30;98176.20;;;;108984;1272;41233;-60
2022/11/10 07:51:34;;;;;;;;;;;;;7.30;98178.00;;;;108981;1268;41177;-61
2022/11/10 07:54:21;;;;;;;;;;;;;7.34;98181.80;;;;108955;1266;41175;-61
2022/11/10 07:57:09;;;;;;;;;;;;;7.38;98175.20;;;;109038;1266;41149;-61
2022/11/10 07:59:56;;;;;;;;;;;;;7.40;98180.20;;;;109062;1268;41445;-63
2022/11/10 08:02:43;;;;;;;;;;;;;7.50;98173.60;;;;109029;1272;41502;-61
2022/11/10 08:05:31;;;;;;;;;;;;;7.60;98180.40;;;;108955;1267;41221;-62
2022/11/10 08:08:18;;;;;;;;;;;;;7.60;98175.00;;;;109030;1270;41995;-61
2022/11/10 08:11:06;;;;;;;;;;;;;7.68;98178.20;;;;108842;1269;41247;-62
2022/11/10 08:13:55;;;;;;;;;;;;;7.70;98182.40;;;;108949;1272;41601;-61
2022/11/10 08:16:42;;;;;;;;;;;;;7.80;98178.40;;;;108957;1272;41588;-61
2022/11/10 08:19:29;;;;;;;;;;;;;7.80;98179.60;;;;108974;1261;41222;-60
2022/11/10 08:22:16;;;;;;;;;;;;;7.90;98179.20;;;;108863;1260;41230;-61
2022/11/10 08:25:03;;;;;;;;;;;;;8.00;98180.00;;;;108856;1272;41242;-60
2022/11/10 08:28:01;;;;;;;;;;;;;8.00;98179.60;;;;108929;1272;41604;-62
2022/11/10 08:30:48;;;;;;;;;;;;;8.10;98188.60;;;;108913;1268;41169;-61
2022/11/10 08:33:36;;;;;;;;;;;;;8.20;98191.80;;;;109027;1271;41195;-62
2022/11/10 08:36:23;;;;;;;;;;;;;8.20;98189.20;;;;108905;1274;41238;-61
2022/11/10 08:39:11;;;;;;;;;;;;;8.30;98193.20;;;;108991;1271;41920;-62
2022/11/10 08:42:10;;;;;;;;;;;;;8.40;98189.00;;;;108949;1273;41223;-61
2022/11/10 08:44:57;;;;;;;;;;;;;8.50;98193.60;;;;108968;1273;41240;-60
2022/11/10 08:47:45;;;;;;;;;;;;;8.50;98191.20;;;;108921;1273;42305;-60
2022/11/10 08:50:32;;;;;;;;;;;;;8.50;98197.00;;;;108994;1273;41926;-60
2022/11/10 08:53:22;;;;;;;;;;;;;8.60;98197.20;;;;108964;1270;41660;-61
2022/11/10 08:56:10;;;;;;;;;;;;;8.76;98198.20;;;;108952;1265;41695;-60
2022/11/10 08:58:57;;;;;;;;;;;;;8.98;98193.40;;;;108927;1269;41162;-60
2022/11/10 09:01:45;;;;;;;;;;;;;9.10;98195.00;;;;108894;1272;41901;-60
2022/11/10 09:04:32;;;;;;;;;;;;;9.20;98196.20;;;;108953;1273;41195;-60
2022/11/10 09:07:19;;;;;;;;;;;;;9.30;98198.40;;;;108945;1267;41177;-60
2022/11/10 09:10:07;;;;;;;;;;;;;9.30;98194.20;;;;108979;1273;41698;-62
2022/11/10 09:12:57;;;;;;;;;;;;;9.40;98197.20;;;;108961;1271;42202;-61
2022/11/10 09:15:44;;;;;;;;;;;;;9.50;98188.80;;;;108917;1273;41294;-61
2022/11/10 09:18:31;;;;;;;;;;;;;9.72;98185.20;;;;108903;1271;42571;-60
2022/11/10 09:21:19;;;;;;;;;;;;;10.10;98189.60;;;;108953;1273;41331;-61
2022/11/10 09:24:06;;;;;;;;;;;;;10.50;98183.20;;;;108951;1267;41221;-59
2022/11/10 09:26:53;;;;;;;;;;;;;10.92;98180.60;;;;108959;1271;41403;-61
2022/11/10 09:29:41;;;;;;;;;;;;;11.42;98174.20;;;;108870;1270;41270;-61
2022/11/10 09:32:30;;;;;;;;;;;;;12.28;98173.00;;;;108977;1272;41160;-61
2022/11/10 09:35:18;;;;;;;;;;;;;13.18;98171.20;;;;108950;1271;42079;-61
2022/11/10 09:38:05;;;;;;;;;;;;;13.90;98163.60;;;;108968;1273;41136;-61
2022/11/10 09:41:01;;;;;;;;;;;;;14.60;98156.40;;;;108979;1273;41864;-60
2022/11/10 09:44:18;;;;;;;;;;;;;15.36;98164.60;;;;108961;1267;41232;-61
2022/11/10 09:47:12;;;;;;;;;;;;;15.80;98162.60;;;;108871;1273;42253;-61
2022/11/10 09:50:05;;;;;;;;;;;;;16.26;98157.80;;;;108966;1273;41151;-62
2022/11/10 09:52:52;;;;;;;;;;;;;17.04;98158.80;;;;108946;1271;41375;-61
2022/11/10 09:55:43;;;;;;;;;;;;;17.02;98158.40;;;;108821;1270;41281;-61
2022/11/10 09:58:33;;;;;;;;;;;;;16.82;98157.40;;;;108955;1267;41685;-62
2022/11/10 10:01:40;;;;;;;;;;;;;16.50;98159.40;;;;108898;1271;41232;-62
2022/11/10 10:04:46;;;;;;;;;;;;;16.04;98162.00;;;;108872;1269;41204;-61
2022/11/10 10:07:40;;;;;;;;;;;;;15.60;98159.60;;;;108841;1273;41609;-61
2022/11/10 10:10:32;;;;;;;;;;;;;15.24;98167.00;;;;108842;1272;41236;-62
2022/11/10 10:13:31;;;;;;;;;;;;;14.90;98166.40;;;;108837;1267;41616;-62
2022/11/10 10:16:18;;;;;;;;;;;;;14.60;98167.20;;;;108771;1272;41699;-61
2022/11/10 10:19:08;;;;;;;;;;;;;14.30;98173.80;;;;108840;1273;41162;-62
2022/11/10 10:21:55;;;;;;;;;;;;;14.00;98175.40;;;;108776;1269;41148;-62
2022/11/10 10:24:42;;;;;;;;;;;;;13.70;98169.60;;;;108826;1269;41166;-62
2022/11/10 10:27:29;;;;;;;;;;;;;13.50;98176.00;;;;108920;1271;42164;-61
2022/11/10 10:30:18;;;;;;;;;;;;;13.20;98175.40;;;;108790;1273;41239;-62
2022/11/10 10:33:15;;;;;;;;;;;;;12.90;98171.60;;;;108929;1269;41154;-62
2022/11/10 10:36:05;;;;;;;;;;;;;12.70;98180.60;;;;108956;1269;41159;-61
2022/11/10 10:39:02;;;;;;;;;;;;;12.50;98179.40;;;;108830;1269;41253;-62
2022/11/10 10:41:50;;;;;;;;;;;;;12.30;98179.00;;;;108917;1269;41166;-61
2022/11/10 10:44:37;;;;;;;;;;;;;12.16;98174.00;;;;108933;1269;41188;-60
2022/11/10 10:47:34;;;;;;;;;;;;;12.00;98174.80;;;;108970;1269;41151;-61
2022/11/10 10:50:26;;;;;;;;;;;;;12.00;98181.80;;;;108977;1265;41147;-61
2022/11/10 10:53:16;;;;;;;;;;;;;12.00;98182.20;;;;108978;1269;41238;-61
2022/11/10 10:56:05;;;;;;;;;;;;;12.10;98183.80;;;;108924;1269;41672;-61
2022/11/10 10:58:55;;;;;;;;;;;;;12.10;98185.60;;;;108864;1263;41159;-62
2022/11/10 11:01:43;;;;;;;;;;;;;12.20;98182.20;;;;108819;1269;42136;-62
2022/11/10 11:04:34;;;;;;;;;;;;;12.20;98183.40;;;;108816;1269;41781;-62
2022/11/10 11:07:22;;;;;;;;;;;;;12.20;98183.80;;;;108931;1269;41228;-61
2022/11/10 11:10:17;;;;;;;;;;;;;12.26;98184.80;;;;108788;1267;42215;-61
2022/11/10 11:13:22;;;;;;;;;;;;;12.30;98180.80;;;;108844;1269;41687;-61
2022/11/10 11:16:11;;;;;;;;;;;;;12.32;98178.40;;;;108945;1269;41150;-61
2022/11/10 11:18:58;;;;;;;;;;;;;12.40;98179.40;;;;108962;1269;41231;-61
2022/11/10 11:21:59;;;;;;;;;;;;;12.40;98180.00;;;;108857;1269;42097;-61
2022/11/10 11:25:13;;;;;;;;;;;;;12.40;98179.40;;;;109011;1269;41609;-61
2022/11/10 11:28:04;;;;;;;;;;;;;12.40;98182.40;;;;109006;1269;41211;-63
2022/11/10 11:31:08;;;;;;;;;;;;;12.40;98183.20;;;;108996;1269;42600;-61
2022/11/10 11:34:04;;;;;;;;;;;;;12.40;98181.00;;;;108963;1269;41593;-61
2022/11/10 11:36:58;;;;;;;;;;;;;12.50;98179.40;;;;108815;1268;41238;-61
2022/11/10 11:39:53;;;;;;;;;;;;;12.50;98178.20;;;;109040;1269;41166;-61
2022/11/10 11:42:44;;;;;;;;;;;;;12.50;98176.20;;;;108968;1262;42570;-61
2022/11/10 11:45:36;;;;;;;;;;;;;12.20;98176.20;;;;108944;1267;41233;-61
2022/11/10 11:48:22;;;;;;;;;;;;;11.90;98180.00;;;;109028;1267;41230;-61
2022/11/10 11:51:28;;;;;;;;;;;;;11.80;98187.60;;;;108998;1269;41402;-60
2022/11/10 11:54:22;;;;;;;;;;;;;11.70;98183.00;;;;108939;1270;41739;-60
2022/11/10 11:57:15;;;;;;;;;;;;;11.70;98185.20;;;;108935;1267;41692;-61
2022/11/10 12:00:03;;;;;;;;;;;;;11.60;98188.20;;;;108901;1268;41602;-60
2022/11/10 12:02:55;;;;;;;;;;;;;11.50;98190.80;;;;108939;1269;41693;-61
2022/11/10 12:06:05;;;;;;;;;;;;;11.40;98185.40;;;;108951;1269;41282;-62
2022/11/10 12:08:56;;;;;;;;;;;;;11.30;98187.60;;;;108779;1269;41619;-61
2022/11/10 12:11:48;;;;;;;;;;;;;11.30;98189.40;;;;108965;1266;41757;-61
2022/11/10 12:14:38;;;;;;;;;;;;;11.30;98192.40;;;;108991;1260;41701;-61
2022/11/10 12:17:32;;;;;;;;;;;;;11.30;98199.00;;;;108853;1269;42161;-61
2022/11/10 12:20:38;;;;;;;;;;;;;11.30;98201.00;;;;108923;1260;40929;-60
2022/11/10 12:23:38;;;;;;;;;;;;;11.30;98202.40;;;;108937;1269;41733;-62
2022/11/10 12:26:37;;;;;;;;;;;;;11.40;98198.60;;;;108891;1271;41236;-61
2022/11/10 12:29:33;;;;;;;;;;;;;11.40;98198.80;;;;108830;1269;42638;-61
2022/11/10 12:32:36;;;;;;;;;;;;;11.44;98201.80;;;;109029;1269;41134;-61
2022/11/10 12:35:27;;;;;;;;;;;;;11.50;98198.00;;;;108959;1269;41965;-61
2022/11/10 12:38:14;;;;;;;;;;;;;11.50;98201.60;;;;108862;1269;42511;-60
2022/11/10 12:41:02;;;;;;;;;;;;;11.60;98202.80;;;;108911;1269;41638;-60
2022/11/10 12:44:15;;;;;;;;;;;;;11.70;98205.40;;;;108883;1267;42677;-61
2022/11/10 12:47:04;;;;;;;;;;;;;11.70;98207.60;;;;108893;1266;42063;-61
2022/11/10 12:49:57;;;;;;;;;;;;;11.80;98209.00;;;;108896;1269;41226;-61
2022/11/10 12:52:57;;;;;;;;;;;;;11.80;98209.60;;;;108913;1271;42162;-61
2022/11/10 12:55:46;;;;;;;;;;;;;11.80;98206.00;;;;108903;1269;41158;-61
2022/11/10 12:58:33;;;;;;;;;;;;;11.88;98206.40;;;;108873;1269;41727;-61
2022/11/10 13:01:20;;;;;;;;;;;;;11.80;98209.20;;;;108670;1271;41514;-61
2022/11/10 13:04:07;;;;;;;;;;;;;11.80;98211.00;;;;108875;1269;41175;-61
2022/11/10 13:06:57;;;;;;;;;;;;;11.80;98208.40;;;;108871;1260;42657;-61
2022/11/10 13:09:44;;;;;;;;;;;;;11.80;98220.00;;;;108863;1269;41888;-61
2022/11/10 13:12:31;;;;;;;;;;;;;11.80;98220.60;;;;108658;1271;41186;-61
2022/11/10 13:15:34;;;;;;;;;;;;;11.82;98219.60;;;;108878;1269;41147;-61
2022/11/10 13:18:30;;;;;;;;;;;;;11.80;98224.20;;;;108865;1269;41640;-61
2022/11/10 13:21:17;;;;;;;;;;;;;11.80;98227.40;;;;108860;1267;41166;-61
2022/11/10 13:24:03;;;;;;;;;;;;;11.70;98227.80;;;;108881;1269;41140;-60
2022/11/10 13:26:57;;;;;;;;;;;;;11.62;98217.20;;;;108859;1271;41248;-61
2022/11/10 13:29:44;;;;;;;;;;;;;11.60;98220.60;;;;108870;1270;41666;-61
2022/11/10 13:32:34;;;;;;;;;;;;;11.60;98211.80;;;;108852;1270;42633;-61
2022/11/10 13:35:27;;;;;;;;;;;;;11.60;98209.80;;;;108663;1269;41160;-61
2022/11/10 13:38:33;;;;;;;;;;;;;11.60;98213.80;;;;108844;1267;41316;-61
2022/11/10 13:41:24;;;;;;;;;;;;;11.60;98204.40;;;;108874;1267;41173;-60
2022/11/10 13:44:28;;;;;;;;;;;;;11.60;98206.80;;;;108854;1269;41282;-61
2022/11/10 13:47:33;;;;;;;;;;;;;11.62;98216.00;;;;108829;1270;41554;-61
2022/11/10 13:50:33;;;;;;;;;;;;;11.60;98221.20;;;;108887;1269;41242;-61
2022/11/10 13:53:32;;;;;;;;;;;;;11.60;98207.40;;;;108819;1267;41137;-61
2022/11/10 13:56:19;;;;;;;;;;;;;11.68;98214.80;;;;108884;1260;42461;-61
2022/11/10 13:59:19;;;;;;;;;;;;;11.70;98217.40;;;;108927;1267;42081;-62
2022/11/10 14:02:24;;;;;;;;;;;;;11.60;98214.40;;;;108926;1269;41267;-61
2022/11/10 14:05:33;;;;;;;;;;;;;11.62;98210.80;;;;108890;1269;41445;-60
2022/11/10 14:08:21;;;;;;;;;;;;;11.68;98217.80;;;;108870;1269;41178;-60
2022/11/10 14:11:13;;;;;;;;;;;;;11.62;98215.80;;;;108927;1269;41236;-60
2022/11/10 14:14:10;;;;;;;;;;;;;11.60;98209.60;;;;108866;1269;41392;-61
2022/11/10 14:16:57;;;;;;;;;;;;;11.60;98203.00;;;;108981;1269;41509;-61
2022/11/10 14:19:43;;;;;;;;;;;;;11.60;98213.80;;;;108945;1269;41235;-61
2022/11/10 14:22:36;;;;;;;;;;;;;11.50;98217.00;;;;108965;1269;41620;-62
2022/11/10 14:25:25;;;;;;;;;;;;;11.50;98219.20;;;;108889;1271;41866;-61
2022/11/10 14:28:32;;;;;;;;;;;;;11.50;98219.40;;;;109069;1269;41239;-62
2022/11/10 14:31:22;;;;;;;;;;;;;11.50;98220.60;;;;108904;1269;41733;-61
2022/11/10 14:34:14;;;;;;;;;;;;;11.50;98222.20;;;;108870;1269;41164;-61
2022/11/10 14:37:01;;;;;;;;;;;;;11.50;98218.20;;;;108887;1269;41447;-60
2022/11/10 14:39:53;;;;;;;;;;;;;11.50;98219.20;;;;108864;1269;41232;-62
2022/11/10 14:42:39;;;;;;;;;;;;;11.50;98221.20;;;;108830;1269;41950;-61
2022/11/10 14:45:27;;;;;;;;;;;;;11.50;98227.60;;;;108807;1265;42182;-62
2022/11/10 14:48:17;;;;;;;;;;;;;11.50;98231.20;;;;108885;1269;41613;-61
2022/11/10 14:51:12;;;;;;;;;;;;;11.50;98227.20;;;;108934;1269;41236;-61
2022/11/10 14:54:00;;;;;;;;;;;;;11.44;98231.60;;;;108855;1267;41141;-63
2022/11/10 14:56:48;;;;;;;;;;;;;11.40;98238.60;;;;108935;1266;41636;-61
2022/11/10 14:59:36;;;;;;;;;;;;;11.40;98238.40;;;;108926;1269;42058;-61
2022/11/10 15:02:23;;;;;;;;;;;;;11.40;98237.40;;;;108915;1269;41245;-60
2022/11/10 15:05:13;;;;;;;;;;;;;11.40;98243.00;;;;108955;1267;41157;-60
2022/11/10 15:08:01;;;;;;;;;;;;;11.40;98244.20;;;;108943;1269;41241;-61
2022/11/10 15:10:49;;;;;;;;;;;;;11.30;98234.40;;;;108972;1269;42173;-61
2022/11/10 15:13:37;;;;;;;;;;;;;11.30;98238.60;;;;108964;1269;41240;-61
2022/11/10 15:16:32;;;;;;;;;;;;;11.30;98243.00;;;;108970;1269;41622;-61
2022/11/10 15:19:21;;;;;;;;;;;;;11.30;98247.00;;;;109002;1267;41234;-60
2022/11/10 15:22:11;;;;;;;;;;;;;11.30;98239.40;;;;109003;1267;41227;-61
2022/11/10 15:24:58;;;;;;;;;;;;;11.30;98236.80;;;;109007;1269;41235;-61
2022/11/10 15:28:04;;;;;;;;;;;;;11.30;98240.20;;;;109036;1269;41164;-61
2022/11/10 15:30:55;;;;;;;;;;;;;11.30;98241.40;;;;108955;1269;41143;-60
2022/11/10 15:33:48;;;;;;;;;;;;;11.30;98247.60;;;;108997;1268;41655;-60
2022/11/10 15:36:39;;;;;;;;;;;;;11.26;98248.20;;;;108934;1261;41412;-61
2022/11/10 15:39:27;;;;;;;;;;;;;11.22;98253.00;;;;108949;1266;41237;-62
2022/11/10 15:42:21;;;;;;;;;;;;;11.30;98258.40;;;;108917;1269;41303;-60
2022/11/10 15:45:08;;;;;;;;;;;;;11.24;98262.00;;;;108955;1269;41175;-60
2022/11/10 15:47:56;;;;;;;;;;;;;11.24;98269.80;;;;108970;1266;41918;-60
2022/11/10 15:50:44;;;;;;;;;;;;;11.20;98272.80;;;;108962;1269;41235;-60
2022/11/10 15:53:38;;;;;;;;;;;;;11.20;98278.20;;;;108975;1263;41148;-61
2022/11/10 15:56:26;;;;;;;;;;;;;11.20;98279.40;;;;108959;1269;41604;-61